sensor_id;sensor_type;location;lat;lon;timestamp;P1;durP1;ratioP1;P2;durP2;ratioP2
81936;SDS011;71432;56.558;9.036;2023-07-24T00:00:52;0.40;;;0.20;;
81936;SDS011;71432;56.558;9.036;2023-07-24T00:03:17;1.00;;;0.27;;
81936;SDS011;71432;56.558;9.036;2023-07-24T00:05:43;0.60;;;0.50;;
81936;SDS011;71432;56.558;9.036;2023-07-24T00:08:08;0.47;;;0.20;;
81936;SDS011;71432;56.558;9.036;2023-07-24T00:10:33;1.85;;;0.30;;
81936;SDS011;71432;56.558;9.036;2023-07-24T00:12:59;0.77;;;0.28;;
81936;SDS011;71432;56.558;9.036;2023-07-24T00:15:24;0.75;;;0.50;;
81936;SDS011;71432;56.558;9.036;2023-07-24T00:17:49;0.40;;;0.17;;
81936;SDS011;71432;56.558;9.036;2023-07-24T00:20:15;0.93;;;0.40;;
81936;SDS011;71432;56.558;9.036;2023-07-24T00:22:40;1.03;;;0.43;;
81936;SDS011;71432;56.558;9.036;2023-07-24T00:25:05;0.57;;;0.20;;
81936;SDS011;71432;56.558;9.036;2023-07-24T00:27:31;0.30;;;0.15;;
81936;SDS011;71432;56.558;9.036;2023-07-24T00:29:56;0.70;;;0.40;;
81936;SDS011;71432;56.558;9.036;2023-07-24T00:32:21;1.27;;;0.40;;
81936;SDS011;71432;56.558;9.036;2023-07-24T00:34:47;0.45;;;0.20;;
81936;SDS011;71432;56.558;9.036;2023-07-24T00:37:12;0.80;;;0.20;;
81936;SDS011;71432;56.558;9.036;2023-07-24T00:39:38;0.77;;;0.40;;
81936;SDS011;71432;56.558;9.036;2023-07-24T00:42:03;0.80;;;0.30;;
81936;SDS011;71432;56.558;9.036;2023-07-24T00:44:29;0.80;;;0.25;;
81936;SDS011;71432;56.558;9.036;2023-07-24T00:46:54;1.23;;;0.30;;
81936;SDS011;71432;56.558;9.036;2023-07-24T00:49:19;4.07;;;0.50;;
81936;SDS011;71432;56.558;9.036;2023-07-24T00:51:46;0.50;;;0.10;;
81936;SDS011;71432;56.558;9.036;2023-07-24T00:54:11;0.40;;;0.10;;
81936;SDS011;71432;56.558;9.036;2023-07-24T00:56:41;0.50;;;0.20;;
81936;SDS011;71432;56.558;9.036;2023-07-24T00:59:06;1.00;;;0.28;;
81936;SDS011;71432;56.558;9.036;2023-07-24T01:01:32;1.25;;;0.52;;
81936;SDS011;71432;56.558;9.036;2023-07-24T01:03:57;0.30;;;0.10;;
81936;SDS011;71432;56.558;9.036;2023-07-24T01:06:24;0.35;;;0.20;;
81936;SDS011;71432;56.558;9.036;2023-07-24T01:08:49;0.50;;;0.30;;
81936;SDS011;71432;56.558;9.036;2023-07-24T01:11:15;0.77;;;0.20;;
81936;SDS011;71432;56.558;9.036;2023-07-24T01:13:55;0.22;;;0.10;;
81936;SDS011;71432;56.558;9.036;2023-07-24T01:16:25;0.28;;;0.20;;
81936;SDS011;71432;56.558;9.036;2023-07-24T01:18:58;0.47;;;0.20;;
81936;SDS011;71432;56.558;9.036;2023-07-24T01:21:29;1.02;;;0.30;;
81936;SDS011;71432;56.558;9.036;2023-07-24T01:24:18;0.93;;;0.20;;
81936;SDS011;71432;56.558;9.036;2023-07-24T01:26:54;2.80;;;0.35;;
81936;SDS011;71432;56.558;9.036;2023-07-24T01:29:19;2.42;;;0.30;;
81936;SDS011;71432;56.558;9.036;2023-07-24T01:31:45;0.40;;;0.23;;
81936;SDS011;71432;56.558;9.036;2023-07-24T01:34:10;0.60;;;0.30;;
81936;SDS011;71432;56.558;9.036;2023-07-24T01:36:36;0.30;;;0.20;;
81936;SDS011;71432;56.558;9.036;2023-07-24T01:39:01;0.57;;;0.25;;
81936;SDS011;71432;56.558;9.036;2023-07-24T01:41:26;0.77;;;0.13;;
81936;SDS011;71432;56.558;9.036;2023-07-24T01:43:52;1.15;;;0.20;;
81936;SDS011;71432;56.558;9.036;2023-07-24T01:46:18;0.60;;;0.20;;
81936;SDS011;71432;56.558;9.036;2023-07-24T01:48:43;1.10;;;0.37;;
81936;SDS011;71432;56.558;9.036;2023-07-24T01:51:08;1.23;;;0.30;;
81936;SDS011;71432;56.558;9.036;2023-07-24T01:53:34;1.13;;;0.30;;
81936;SDS011;71432;56.558;9.036;2023-07-24T01:55:59;0.30;;;0.20;;
81936;SDS011;71432;56.558;9.036;2023-07-24T01:58:24;0.40;;;0.30;;
81936;SDS011;71432;56.558;9.036;2023-07-24T02:00:50;0.37;;;0.30;;
81936;SDS011;71432;56.558;9.036;2023-07-24T02:03:15;0.95;;;0.25;;
81936;SDS011;71432;56.558;9.036;2023-07-24T02:05:40;0.80;;;0.30;;
81936;SDS011;71432;56.558;9.036;2023-07-24T02:08:06;0.47;;;0.17;;
81936;SDS011;71432;56.558;9.036;2023-07-24T02:10:31;0.65;;;0.10;;
81936;SDS011;71432;56.558;9.036;2023-07-24T02:12:56;0.22;;;0.10;;
81936;SDS011;71432;56.558;9.036;2023-07-24T02:15:22;0.83;;;0.10;;
81936;SDS011;71432;56.558;9.036;2023-07-24T02:17:47;0.30;;;0.20;;
81936;SDS011;71432;56.558;9.036;2023-07-24T02:20:12;0.43;;;0.17;;
81936;SDS011;71432;56.558;9.036;2023-07-24T02:22:38;0.15;;;0.13;;
81936;SDS011;71432;56.558;9.036;2023-07-24T02:25:03;0.20;;;0.10;;
81936;SDS011;71432;56.558;9.036;2023-07-24T02:27:30;0.15;;;0.10;;
81936;SDS011;71432;56.558;9.036;2023-07-24T02:29:56;0.52;;;0.30;;
81936;SDS011;71432;56.558;9.036;2023-07-24T02:32:22;0.63;;;0.30;;
81936;SDS011;71432;56.558;9.036;2023-07-24T02:34:51;1.35;;;0.17;;
81936;SDS011;71432;56.558;9.036;2023-07-24T02:37:17;0.60;;;0.30;;
81936;SDS011;71432;56.558;9.036;2023-07-24T02:39:43;0.17;;;0.10;;
81936;SDS011;71432;56.558;9.036;2023-07-24T02:42:08;6.65;;;0.32;;
81936;SDS011;71432;56.558;9.036;2023-07-24T02:44:34;0.43;;;0.17;;
81936;SDS011;71432;56.558;9.036;2023-07-24T02:49:25;1.00;;;0.13;;
81936;SDS011;71432;56.558;9.036;2023-07-24T02:51:50;0.75;;;0.15;;
81936;SDS011;71432;56.558;9.036;2023-07-24T02:54:16;0.83;;;0.20;;
81936;SDS011;71432;56.558;9.036;2023-07-24T02:56:41;0.30;;;0.10;;
81936;SDS011;71432;56.558;9.036;2023-07-24T02:59:06;0.27;;;0.20;;
81936;SDS011;71432;56.558;9.036;2023-07-24T03:01:31;0.20;;;0.10;;
81936;SDS011;71432;56.558;9.036;2023-07-24T03:03:57;0.27;;;0.20;;
81936;SDS011;71432;56.558;9.036;2023-07-24T03:06:22;0.63;;;0.33;;
81936;SDS011;71432;56.558;9.036;2023-07-24T03:08:47;0.30;;;0.13;;
81936;SDS011;71432;56.558;9.036;2023-07-24T03:11:13;0.13;;;0.10;;
81936;SDS011;71432;56.558;9.036;2023-07-24T03:13:38;0.17;;;0.10;;
81936;SDS011;71432;56.558;9.036;2023-07-24T03:16:06;0.60;;;0.20;;
81936;SDS011;71432;56.558;9.036;2023-07-24T03:18:31;0.35;;;0.13;;
81936;SDS011;71432;56.558;9.036;2023-07-24T03:20:57;0.27;;;0.20;;
81936;SDS011;71432;56.558;9.036;2023-07-24T03:23:23;0.57;;;0.30;;
81936;SDS011;71432;56.558;9.036;2023-07-24T03:25:49;1.43;;;0.20;;
81936;SDS011;71432;56.558;9.036;2023-07-24T03:28:14;0.65;;;0.20;;
81936;SDS011;71432;56.558;9.036;2023-07-24T03:30:39;0.30;;;0.10;;
81936;SDS011;71432;56.558;9.036;2023-07-24T03:33:05;5.67;;;0.60;;
81936;SDS011;71432;56.558;9.036;2023-07-24T03:35:31;0.30;;;0.10;;
81936;SDS011;71432;56.558;9.036;2023-07-24T03:37:57;0.50;;;0.20;;
81936;SDS011;71432;56.558;9.036;2023-07-24T03:40:22;0.43;;;0.37;;
81936;SDS011;71432;56.558;9.036;2023-07-24T03:42:47;1.42;;;0.30;;
81936;SDS011;71432;56.558;9.036;2023-07-24T03:45:13;0.30;;;0.20;;
81936;SDS011;71432;56.558;9.036;2023-07-24T03:47:38;1.10;;;0.30;;
81936;SDS011;71432;56.558;9.036;2023-07-24T03:50:03;0.73;;;0.20;;
81936;SDS011;71432;56.558;9.036;2023-07-24T03:52:29;0.60;;;0.30;;
81936;SDS011;71432;56.558;9.036;2023-07-24T03:54:54;0.70;;;0.27;;
81936;SDS011;71432;56.558;9.036;2023-07-24T03:57:19;0.40;;;0.17;;
81936;SDS011;71432;56.558;9.036;2023-07-24T03:59:45;0.50;;;0.15;;
81936;SDS011;71432;56.558;9.036;2023-07-24T04:02:10;0.93;;;0.40;;
81936;SDS011;71432;56.558;9.036;2023-07-24T04:04:36;0.88;;;0.40;;
81936;SDS011;71432;56.558;9.036;2023-07-24T04:07:02;0.90;;;0.35;;
81936;SDS011;71432;56.558;9.036;2023-07-24T04:09:27;0.70;;;0.22;;
81936;SDS011;71432;56.558;9.036;2023-07-24T04:11:53;1.35;;;0.30;;
81936;SDS011;71432;56.558;9.036;2023-07-24T04:14:18;1.55;;;0.30;;
81936;SDS011;71432;56.558;9.036;2023-07-24T04:16:44;1.03;;;0.40;;
81936;SDS011;71432;56.558;9.036;2023-07-24T04:19:10;0.50;;;0.20;;
81936;SDS011;71432;56.558;9.036;2023-07-24T04:21:35;0.95;;;0.57;;
81936;SDS011;71432;56.558;9.036;2023-07-24T04:24:00;1.35;;;0.35;;
81936;SDS011;71432;56.558;9.036;2023-07-24T04:26:26;0.30;;;0.20;;
81936;SDS011;71432;56.558;9.036;2023-07-24T04:28:51;1.13;;;0.50;;
81936;SDS011;71432;56.558;9.036;2023-07-24T04:31:16;0.60;;;0.30;;
81936;SDS011;71432;56.558;9.036;2023-07-24T04:33:41;0.73;;;0.20;;
81936;SDS011;71432;56.558;9.036;2023-07-24T04:36:07;1.00;;;0.30;;
81936;SDS011;71432;56.558;9.036;2023-07-24T04:38:32;0.75;;;0.30;;
81936;SDS011;71432;56.558;9.036;2023-07-24T04:41:00;0.60;;;0.40;;
81936;SDS011;71432;56.558;9.036;2023-07-24T04:43:26;0.98;;;0.35;;
81936;SDS011;71432;56.558;9.036;2023-07-24T04:45:51;1.20;;;0.30;;
81936;SDS011;71432;56.558;9.036;2023-07-24T04:48:16;0.70;;;0.30;;
81936;SDS011;71432;56.558;9.036;2023-07-24T04:50:41;0.60;;;0.30;;
81936;SDS011;71432;56.558;9.036;2023-07-24T04:53:07;0.52;;;0.38;;
81936;SDS011;71432;56.558;9.036;2023-07-24T04:55:32;0.60;;;0.30;;
81936;SDS011;71432;56.558;9.036;2023-07-24T04:57:57;0.32;;;0.13;;
81936;SDS011;71432;56.558;9.036;2023-07-24T05:00:23;4.90;;;0.60;;
81936;SDS011;71432;56.558;9.036;2023-07-24T05:02:48;1.17;;;0.47;;
81936;SDS011;71432;56.558;9.036;2023-07-24T05:05:13;0.85;;;0.30;;
81936;SDS011;71432;56.558;9.036;2023-07-24T05:07:39;0.30;;;0.20;;
81936;SDS011;71432;56.558;9.036;2023-07-24T05:10:04;1.70;;;0.73;;
81936;SDS011;71432;56.558;9.036;2023-07-24T05:12:30;2.10;;;0.30;;
81936;SDS011;71432;56.558;9.036;2023-07-24T05:14:55;0.47;;;0.27;;
81936;SDS011;71432;56.558;9.036;2023-07-24T05:17:21;0.40;;;0.23;;
81936;SDS011;71432;56.558;9.036;2023-07-24T05:19:46;0.40;;;0.30;;
81936;SDS011;71432;56.558;9.036;2023-07-24T05:22:11;0.63;;;0.20;;
81936;SDS011;71432;56.558;9.036;2023-07-24T05:24:37;0.68;;;0.20;;
81936;SDS011;71432;56.558;9.036;2023-07-24T05:27:03;0.20;;;0.10;;
81936;SDS011;71432;56.558;9.036;2023-07-24T05:29:29;0.85;;;0.20;;
81936;SDS011;71432;56.558;9.036;2023-07-24T05:31:55;4.30;;;0.22;;
81936;SDS011;71432;56.558;9.036;2023-07-24T05:34:20;0.43;;;0.20;;
81936;SDS011;71432;56.558;9.036;2023-07-24T05:36:46;0.32;;;0.20;;
81936;SDS011;71432;56.558;9.036;2023-07-24T05:39:11;0.67;;;0.17;;
81936;SDS011;71432;56.558;9.036;2023-07-24T05:41:36;0.70;;;0.20;;
81936;SDS011;71432;56.558;9.036;2023-07-24T05:44:02;1.17;;;0.30;;
81936;SDS011;71432;56.558;9.036;2023-07-24T05:46:27;3.53;;;0.98;;
81936;SDS011;71432;56.558;9.036;2023-07-24T05:48:53;0.95;;;0.30;;
81936;SDS011;71432;56.558;9.036;2023-07-24T05:51:18;0.30;;;0.10;;
81936;SDS011;71432;56.558;9.036;2023-07-24T05:53:43;1.30;;;0.20;;
81936;SDS011;71432;56.558;9.036;2023-07-24T05:56:09;0.43;;;0.20;;
81936;SDS011;71432;56.558;9.036;2023-07-24T05:58:34;0.60;;;0.27;;
81936;SDS011;71432;56.558;9.036;2023-07-24T06:01:00;0.93;;;0.10;;
81936;SDS011;71432;56.558;9.036;2023-07-24T06:03:25;0.38;;;0.30;;
81936;SDS011;71432;56.558;9.036;2023-07-24T06:05:51;0.50;;;0.20;;
81936;SDS011;71432;56.558;9.036;2023-07-24T06:08:17;1.45;;;0.20;;
81936;SDS011;71432;56.558;9.036;2023-07-24T06:10:43;0.20;;;0.10;;
81936;SDS011;71432;56.558;9.036;2023-07-24T06:13:08;0.60;;;0.20;;
81936;SDS011;71432;56.558;9.036;2023-07-24T06:15:33;0.97;;;0.30;;
81936;SDS011;71432;56.558;9.036;2023-07-24T06:17:59;0.57;;;0.23;;
81936;SDS011;71432;56.558;9.036;2023-07-24T06:20:24;1.20;;;0.27;;
81936;SDS011;71432;56.558;9.036;2023-07-24T06:22:49;0.50;;;0.17;;
81936;SDS011;71432;56.558;9.036;2023-07-24T06:25:14;0.77;;;0.27;;
81936;SDS011;71432;56.558;9.036;2023-07-24T06:27:40;0.52;;;0.20;;
81936;SDS011;71432;56.558;9.036;2023-07-24T06:30:05;0.53;;;0.27;;
81936;SDS011;71432;56.558;9.036;2023-07-24T06:32:32;0.50;;;0.32;;
81936;SDS011;71432;56.558;9.036;2023-07-24T06:34:57;0.20;;;0.10;;
81936;SDS011;71432;56.558;9.036;2023-07-24T06:37:22;1.30;;;0.23;;
81936;SDS011;71432;56.558;9.036;2023-07-24T06:39:48;0.33;;;0.10;;
81936;SDS011;71432;56.558;9.036;2023-07-24T06:42:13;0.40;;;0.30;;
81936;SDS011;71432;56.558;9.036;2023-07-24T06:44:38;2.05;;;0.20;;
81936;SDS011;71432;56.558;9.036;2023-07-24T06:47:04;0.30;;;0.20;;
81936;SDS011;71432;56.558;9.036;2023-07-24T06:49:29;0.60;;;0.20;;
81936;SDS011;71432;56.558;9.036;2023-07-24T06:51:54;0.45;;;0.10;;
81936;SDS011;71432;56.558;9.036;2023-07-24T06:54:20;0.77;;;0.20;;
81936;SDS011;71432;56.558;9.036;2023-07-24T06:56:45;0.15;;;0.10;;
81936;SDS011;71432;56.558;9.036;2023-07-24T06:59:10;1.70;;;0.20;;
81936;SDS011;71432;56.558;9.036;2023-07-24T07:01:36;1.17;;;0.20;;
81936;SDS011;71432;56.558;9.036;2023-07-24T07:04:01;0.60;;;0.10;;
81936;SDS011;71432;56.558;9.036;2023-07-24T07:06:26;1.10;;;0.30;;
81936;SDS011;71432;56.558;9.036;2023-07-24T07:08:52;0.30;;;0.10;;
81936;SDS011;71432;56.558;9.036;2023-07-24T07:11:17;1.65;;;0.20;;
81936;SDS011;71432;56.558;9.036;2023-07-24T07:13:42;2.07;;;0.60;;
81936;SDS011;71432;56.558;9.036;2023-07-24T07:16:07;1.60;;;0.10;;
81936;SDS011;71432;56.558;9.036;2023-07-24T07:18:33;0.47;;;0.15;;
81936;SDS011;71432;56.558;9.036;2023-07-24T07:20:58;1.03;;;0.20;;
81936;SDS011;71432;56.558;9.036;2023-07-24T07:23:23;1.63;;;0.28;;
81936;SDS011;71432;56.558;9.036;2023-07-24T07:25:50;3.35;;;0.20;;
81936;SDS011;71432;56.558;9.036;2023-07-24T07:28:16;1.10;;;0.20;;
81936;SDS011;71432;56.558;9.036;2023-07-24T07:30:42;0.20;;;0.10;;
81936;SDS011;71432;56.558;9.036;2023-07-24T07:33:08;2.17;;;0.20;;
81936;SDS011;71432;56.558;9.036;2023-07-24T07:35:34;0.20;;;0.10;;
81936;SDS011;71432;56.558;9.036;2023-07-24T07:38:00;0.57;;;0.20;;
81936;SDS011;71432;56.558;9.036;2023-07-24T07:40:26;2.40;;;0.40;;
81936;SDS011;71432;56.558;9.036;2023-07-24T07:42:55;0.65;;;0.10;;
81936;SDS011;71432;56.558;9.036;2023-07-24T07:45:21;1.00;;;0.22;;
81936;SDS011;71432;56.558;9.036;2023-07-24T07:47:47;2.05;;;0.10;;
81936;SDS011;71432;56.558;9.036;2023-07-24T07:50:12;0.15;;;0.10;;
81936;SDS011;71432;56.558;9.036;2023-07-24T07:52:38;0.50;;;0.20;;
81936;SDS011;71432;56.558;9.036;2023-07-24T07:55:04;0.15;;;0.10;;
81936;SDS011;71432;56.558;9.036;2023-07-24T07:57:31;1.08;;;0.25;;
81936;SDS011;71432;56.558;9.036;2023-07-24T08:00:00;1.58;;;0.10;;
81936;SDS011;71432;56.558;9.036;2023-07-24T08:02:25;0.30;;;0.10;;
81936;SDS011;71432;56.558;9.036;2023-07-24T08:04:51;0.97;;;0.20;;
81936;SDS011;71432;56.558;9.036;2023-07-24T08:07:16;0.43;;;0.30;;
81936;SDS011;71432;56.558;9.036;2023-07-24T08:09:41;0.15;;;0.10;;
81936;SDS011;71432;56.558;9.036;2023-07-24T08:12:07;0.23;;;0.10;;
81936;SDS011;71432;56.558;9.036;2023-07-24T08:14:32;0.70;;;0.20;;
81936;SDS011;71432;56.558;9.036;2023-07-24T08:16:58;0.70;;;0.30;;
81936;SDS011;71432;56.558;9.036;2023-07-24T08:19:23;2.33;;;0.20;;
81936;SDS011;71432;56.558;9.036;2023-07-24T08:21:48;0.40;;;0.10;;
81936;SDS011;71432;56.558;9.036;2023-07-24T08:24:14;0.50;;;0.20;;
81936;SDS011;71432;56.558;9.036;2023-07-24T08:26:39;1.63;;;0.20;;
81936;SDS011;71432;56.558;9.036;2023-07-24T08:29:05;4.20;;;0.30;;
81936;SDS011;71432;56.558;9.036;2023-07-24T08:31:30;2.08;;;0.20;;
81936;SDS011;71432;56.558;9.036;2023-07-24T08:33:55;0.88;;;0.20;;
81936;SDS011;71432;56.558;9.036;2023-07-24T08:36:21;6.60;;;0.40;;
81936;SDS011;71432;56.558;9.036;2023-07-24T08:38:46;0.10;;;0.10;;
81936;SDS011;71432;56.558;9.036;2023-07-24T08:41:13;5.05;;;0.50;;
81936;SDS011;71432;56.558;9.036;2023-07-24T08:43:41;0.38;;;0.10;;
81936;SDS011;71432;56.558;9.036;2023-07-24T08:46:08;0.40;;;0.25;;
81936;SDS011;71432;56.558;9.036;2023-07-24T08:51:03;0.22;;;0.20;;
81936;SDS011;71432;56.558;9.036;2023-07-24T08:53:30;1.27;;;0.10;;
81936;SDS011;71432;56.558;9.036;2023-07-24T08:55:58;1.17;;;0.82;;
81936;SDS011;71432;56.558;9.036;2023-07-24T08:58:24;0.25;;;0.13;;
81936;SDS011;71432;56.558;9.036;2023-07-24T09:00:50;1.27;;;0.20;;
81936;SDS011;71432;56.558;9.036;2023-07-24T09:05:42;1.42;;;0.20;;
81936;SDS011;71432;56.558;9.036;2023-07-24T09:08:07;1.33;;;0.20;;
81936;SDS011;71432;56.558;9.036;2023-07-24T09:10:32;1.00;;;0.10;;
81936;SDS011;71432;56.558;9.036;2023-07-24T09:12:58;0.15;;;0.15;;
81936;SDS011;71432;56.558;9.036;2023-07-24T09:15:23;0.90;;;0.20;;
81936;SDS011;71432;56.558;9.036;2023-07-24T09:17:49;0.97;;;0.20;;
81936;SDS011;71432;56.558;9.036;2023-07-24T09:20:15;1.77;;;0.20;;
81936;SDS011;71432;56.558;9.036;2023-07-24T09:22:48;1.58;;;0.20;;
81936;SDS011;71432;56.558;9.036;2023-07-24T09:25:17;1.48;;;0.28;;
81936;SDS011;71432;56.558;9.036;2023-07-24T09:27:42;2.47;;;0.30;;
81936;SDS011;71432;56.558;9.036;2023-07-24T09:30:12;2.75;;;0.60;;
81936;SDS011;71432;56.558;9.036;2023-07-24T09:32:40;2.90;;;0.20;;
81936;SDS011;71432;56.558;9.036;2023-07-24T09:35:18;1.27;;;0.20;;
81936;SDS011;71432;56.558;9.036;2023-07-24T09:37:44;0.68;;;0.43;;
81936;SDS011;71432;56.558;9.036;2023-07-24T09:40:10;1.05;;;0.22;;
81936;SDS011;71432;56.558;9.036;2023-07-24T09:42:36;0.43;;;0.10;;
81936;SDS011;71432;56.558;9.036;2023-07-24T09:45:03;2.45;;;0.22;;
81936;SDS011;71432;56.558;9.036;2023-07-24T09:47:30;1.02;;;0.22;;
81936;SDS011;71432;56.558;9.036;2023-07-24T09:49:56;4.45;;;0.95;;
81936;SDS011;71432;56.558;9.036;2023-07-24T09:52:21;1.77;;;0.80;;
81936;SDS011;71432;56.558;9.036;2023-07-24T09:54:59;1.60;;;0.52;;
81936;SDS011;71432;56.558;9.036;2023-07-24T09:57:25;4.93;;;0.82;;
81936;SDS011;71432;56.558;9.036;2023-07-24T09:59:52;3.33;;;0.60;;
81936;SDS011;71432;56.558;9.036;2023-07-24T10:02:18;2.22;;;0.75;;
81936;SDS011;71432;56.558;9.036;2023-07-24T10:04:44;1.27;;;0.30;;
81936;SDS011;71432;56.558;9.036;2023-07-24T10:07:10;1.30;;;0.32;;
81936;SDS011;71432;56.558;9.036;2023-07-24T10:09:36;0.80;;;0.43;;
81936;SDS011;71432;56.558;9.036;2023-07-24T10:12:02;2.47;;;0.35;;
81936;SDS011;71432;56.558;9.036;2023-07-24T10:14:28;13.65;;;1.75;;
81936;SDS011;71432;56.558;9.036;2023-07-24T10:16:55;5.43;;;0.47;;
81936;SDS011;71432;56.558;9.036;2023-07-24T10:19:21;4.05;;;0.50;;
81936;SDS011;71432;56.558;9.036;2023-07-24T10:21:47;4.27;;;0.47;;
81936;SDS011;71432;56.558;9.036;2023-07-24T10:24:14;3.13;;;0.30;;
81936;SDS011;71432;56.558;9.036;2023-07-24T10:26:40;1.27;;;0.30;;
81936;SDS011;71432;56.558;9.036;2023-07-24T10:29:06;1.83;;;0.20;;
81936;SDS011;71432;56.558;9.036;2023-07-24T10:31:32;1.85;;;0.32;;
81936;SDS011;71432;56.558;9.036;2023-07-24T10:34:04;2.28;;;0.22;;
81936;SDS011;71432;56.558;9.036;2023-07-24T10:36:33;2.40;;;0.22;;
81936;SDS011;71432;56.558;9.036;2023-07-24T10:38:59;0.60;;;0.22;;
81936;SDS011;71432;56.558;9.036;2023-07-24T10:41:35;6.38;;;0.40;;
81936;SDS011;71432;56.558;9.036;2023-07-24T10:44:01;1.58;;;0.30;;
81936;SDS011;71432;56.558;9.036;2023-07-24T10:46:35;10.55;;;2.78;;
81936;SDS011;71432;56.558;9.036;2023-07-24T10:49:02;3.53;;;0.63;;
81936;SDS011;71432;56.558;9.036;2023-07-24T10:51:28;3.97;;;0.68;;
81936;SDS011;71432;56.558;9.036;2023-07-24T10:53:54;1.00;;;0.30;;
81936;SDS011;71432;56.558;9.036;2023-07-24T10:56:20;4.63;;;0.45;;
81936;SDS011;71432;56.558;9.036;2023-07-24T10:58:45;2.58;;;0.38;;
81936;SDS011;71432;56.558;9.036;2023-07-24T11:01:10;1.87;;;0.40;;
81936;SDS011;71432;56.558;9.036;2023-07-24T11:03:37;5.63;;;0.35;;
81936;SDS011;71432;56.558;9.036;2023-07-24T11:06:04;4.07;;;0.32;;
81936;SDS011;71432;56.558;9.036;2023-07-24T11:08:30;4.75;;;1.13;;
81936;SDS011;71432;56.558;9.036;2023-07-24T11:10:57;5.22;;;0.40;;
81936;SDS011;71432;56.558;9.036;2023-07-24T11:15:53;9.90;;;2.50;;
81936;SDS011;71432;56.558;9.036;2023-07-24T11:18:19;10.32;;;2.80;;
81936;SDS011;71432;56.558;9.036;2023-07-24T11:20:50;13.10;;;2.78;;
81936;SDS011;71432;56.558;9.036;2023-07-24T11:23:18;11.63;;;1.92;;
81936;SDS011;71432;56.558;9.036;2023-07-24T11:25:44;6.88;;;1.17;;
81936;SDS011;71432;56.558;9.036;2023-07-24T11:30:36;7.95;;;1.33;;
81936;SDS011;71432;56.558;9.036;2023-07-24T11:33:02;5.03;;;1.88;;
81936;SDS011;71432;56.558;9.036;2023-07-24T11:35:29;10.05;;;1.73;;
81936;SDS011;71432;56.558;9.036;2023-07-24T11:37:55;14.98;;;2.88;;
81936;SDS011;71432;56.558;9.036;2023-07-24T11:40:20;13.45;;;2.22;;
81936;SDS011;71432;56.558;9.036;2023-07-24T11:42:47;6.13;;;1.80;;
81936;SDS011;71432;56.558;9.036;2023-07-24T11:45:13;6.68;;;1.50;;
81936;SDS011;71432;56.558;9.036;2023-07-24T11:47:43;6.78;;;1.70;;
81936;SDS011;71432;56.558;9.036;2023-07-24T11:50:08;6.07;;;1.60;;
81936;SDS011;71432;56.558;9.036;2023-07-24T11:52:39;6.78;;;1.58;;
81936;SDS011;71432;56.558;9.036;2023-07-24T11:55:06;7.68;;;1.55;;
81936;SDS011;71432;56.558;9.036;2023-07-24T11:59:57;8.27;;;1.30;;
81936;SDS011;71432;56.558;9.036;2023-07-24T12:02:26;7.22;;;1.50;;
81936;SDS011;71432;56.558;9.036;2023-07-24T12:04:55;3.50;;;0.93;;
81936;SDS011;71432;56.558;9.036;2023-07-24T12:07:23;5.18;;;1.38;;
81936;SDS011;71432;56.558;9.036;2023-07-24T12:09:59;4.72;;;1.38;;
81936;SDS011;71432;56.558;9.036;2023-07-24T12:12:45;4.78;;;0.95;;
81936;SDS011;71432;56.558;9.036;2023-07-24T12:15:12;4.75;;;1.38;;
81936;SDS011;71432;56.558;9.036;2023-07-24T12:17:38;3.92;;;0.85;;
81936;SDS011;71432;56.558;9.036;2023-07-24T12:20:04;4.22;;;1.13;;
81936;SDS011;71432;56.558;9.036;2023-07-24T12:22:33;7.63;;;1.20;;
81936;SDS011;71432;56.558;9.036;2023-07-24T12:24:58;4.97;;;1.38;;
81936;SDS011;71432;56.558;9.036;2023-07-24T12:27:24;2.80;;;1.17;;
81936;SDS011;71432;56.558;9.036;2023-07-24T12:29:50;4.07;;;1.00;;
81936;SDS011;71432;56.558;9.036;2023-07-24T12:32:16;3.90;;;1.20;;
81936;SDS011;71432;56.558;9.036;2023-07-24T12:34:42;3.63;;;1.23;;
81936;SDS011;71432;56.558;9.036;2023-07-24T12:37:07;4.63;;;1.00;;
81936;SDS011;71432;56.558;9.036;2023-07-24T12:39:32;3.70;;;1.30;;
81936;SDS011;71432;56.558;9.036;2023-07-24T12:41:58;5.50;;;1.20;;
81936;SDS011;71432;56.558;9.036;2023-07-24T12:44:23;3.13;;;1.02;;
81936;SDS011;71432;56.558;9.036;2023-07-24T12:46:51;4.78;;;1.15;;
81936;SDS011;71432;56.558;9.036;2023-07-24T12:49:16;3.67;;;1.15;;
81936;SDS011;71432;56.558;9.036;2023-07-24T12:51:41;1.75;;;0.80;;
81936;SDS011;71432;56.558;9.036;2023-07-24T12:54:07;3.30;;;1.10;;
81936;SDS011;71432;56.558;9.036;2023-07-24T12:56:32;4.70;;;0.70;;
81936;SDS011;71432;56.558;9.036;2023-07-24T12:58:57;2.97;;;0.90;;
81936;SDS011;71432;56.558;9.036;2023-07-24T13:01:22;4.67;;;0.90;;
81936;SDS011;71432;56.558;9.036;2023-07-24T13:06:14;6.53;;;1.17;;
81936;SDS011;71432;56.558;9.036;2023-07-24T13:08:39;4.30;;;1.05;;
81936;SDS011;71432;56.558;9.036;2023-07-24T13:11:05;2.50;;;1.20;;
81936;SDS011;71432;56.558;9.036;2023-07-24T13:13:30;3.80;;;1.13;;
81936;SDS011;71432;56.558;9.036;2023-07-24T13:15:55;2.33;;;0.90;;
81936;SDS011;71432;56.558;9.036;2023-07-24T13:18:21;3.27;;;1.00;;
81936;SDS011;71432;56.558;9.036;2023-07-24T13:20:46;5.30;;;1.23;;
81936;SDS011;71432;56.558;9.036;2023-07-24T13:23:11;3.40;;;1.00;;
81936;SDS011;71432;56.558;9.036;2023-07-24T13:25:37;2.70;;;0.90;;
81936;SDS011;71432;56.558;9.036;2023-07-24T13:28:02;3.80;;;1.45;;
81936;SDS011;71432;56.558;9.036;2023-07-24T13:30:27;3.22;;;1.35;;
81936;SDS011;71432;56.558;9.036;2023-07-24T13:32:53;2.78;;;1.02;;
81936;SDS011;71432;56.558;9.036;2023-07-24T13:35:18;2.20;;;0.90;;
81936;SDS011;71432;56.558;9.036;2023-07-24T13:37:44;4.90;;;1.13;;
81936;SDS011;71432;56.558;9.036;2023-07-24T13:40:09;6.00;;;1.40;;
81936;SDS011;71432;56.558;9.036;2023-07-24T13:42:35;5.90;;;1.38;;
81936;SDS011;71432;56.558;9.036;2023-07-24T13:45:00;4.82;;;1.15;;
81936;SDS011;71432;56.558;9.036;2023-07-24T13:47:25;3.40;;;1.13;;
81936;SDS011;71432;56.558;9.036;2023-07-24T13:49:51;6.93;;;1.50;;
81936;SDS011;71432;56.558;9.036;2023-07-24T13:52:16;6.28;;;1.48;;
81936;SDS011;71432;56.558;9.036;2023-07-24T13:54:41;5.60;;;1.00;;
81936;SDS011;71432;56.558;9.036;2023-07-24T13:57:07;2.70;;;1.10;;
81936;SDS011;71432;56.558;9.036;2023-07-24T13:59:33;2.17;;;1.15;;
81936;SDS011;71432;56.558;9.036;2023-07-24T14:04:24;3.90;;;1.03;;
81936;SDS011;71432;56.558;9.036;2023-07-24T14:06:50;4.13;;;1.27;;
81936;SDS011;71432;56.558;9.036;2023-07-24T14:09:15;2.65;;;0.77;;
81936;SDS011;71432;56.558;9.036;2023-07-24T14:11:41;2.05;;;1.10;;
81936;SDS011;71432;56.558;9.036;2023-07-24T14:14:06;2.87;;;1.17;;
81936;SDS011;71432;56.558;9.036;2023-07-24T14:16:31;5.07;;;1.40;;
81936;SDS011;71432;56.558;9.036;2023-07-24T14:18:57;5.97;;;1.55;;
81936;SDS011;71432;56.558;9.036;2023-07-24T14:21:22;3.93;;;1.13;;
81936;SDS011;71432;56.558;9.036;2023-07-24T14:23:47;1.88;;;1.00;;
81936;SDS011;71432;56.558;9.036;2023-07-24T14:26:13;3.40;;;1.00;;
81936;SDS011;71432;56.558;9.036;2023-07-24T14:28:38;3.33;;;1.17;;
81936;SDS011;71432;56.558;9.036;2023-07-24T14:31:03;3.30;;;1.10;;
81936;SDS011;71432;56.558;9.036;2023-07-24T14:33:29;3.47;;;0.88;;
81936;SDS011;71432;56.558;9.036;2023-07-24T14:35:55;2.50;;;0.93;;
81936;SDS011;71432;56.558;9.036;2023-07-24T14:38:20;2.15;;;1.08;;
81936;SDS011;71432;56.558;9.036;2023-07-24T14:40:45;4.03;;;1.20;;
81936;SDS011;71432;56.558;9.036;2023-07-24T14:43:11;4.93;;;1.25;;
81936;SDS011;71432;56.558;9.036;2023-07-24T14:45:36;2.15;;;0.60;;
81936;SDS011;71432;56.558;9.036;2023-07-24T14:48:01;4.20;;;1.13;;
81936;SDS011;71432;56.558;9.036;2023-07-24T14:50:27;2.67;;;1.08;;
81936;SDS011;71432;56.558;9.036;2023-07-24T14:52:52;4.30;;;1.17;;
81936;SDS011;71432;56.558;9.036;2023-07-24T14:55:17;4.30;;;1.20;;
81936;SDS011;71432;56.558;9.036;2023-07-24T14:57:43;4.90;;;1.20;;
81936;SDS011;71432;56.558;9.036;2023-07-24T15:00:09;3.28;;;1.25;;